Flight Track Log - Related Links

Times and Time Zones

All times are in EDT time to prevent confusion due to time zone crossing. See the UAL4376 flight status page for this flight to view local times or setup timezone preferences in your user account.

Time Position Orientation Groundspeed Altitude Reporting Facility
EDT Latitude Longitude Course Direction KTS MPH feet Rate Location/Type
Fri 02:26:00 PM 35.9174 -94.3719 244° Southwest  Level Estimated
Fri 02:27:00 PM 35.9223 -94.4853 273° West  Level FlightAware Approximate
Fri 02:27:07 PM 36.1108 -94.5575 250° West 269 310 10,400  Level Memphis Center
Fri 02:28:00 PM 35.8311 -94.4994 241° Southwest  Level Estimated
Fri 02:28:07 PM 36.0806 -94.6511 248° West 287 330 11,900  Level Memphis Center
Fri 02:29:00 PM 35.8361 -94.6126 273° West  Level FlightAware Approximate
Fri 02:29:58 PM 36.0261 -94.8297 249° West 313 360 14,400  Level Fort Worth Center
Fri 02:30:00 PM 35.7446 -94.6248 246° West  Level Estimated
Fri 02:30:58 PM 35.9967 -94.9308 250° West 313 360 15,700  Level Fort Worth Center
Fri 02:31:58 PM 35.9633 -95.0342 248° West 313 360 16,900 1,150 Climbing Fort Worth Center
Fri 02:32:58 PM 35.9297 -95.1353 248° West 313 360 18,000 1,250 Climbing Fort Worth Center
Fri 02:33:58 PM 35.8983 -95.2386 249° West 313 360 19,400 1,300 Climbing Fort Worth Center
Fri 02:34:58 PM 35.8392 -95.3194 228° Southwest 318 366 20,600 1,100 Climbing Fort Worth Center
Fri 02:35:58 PM 35.7567 -95.3675 205° Southwest 312 359 21,600 1,100 Climbing Fort Worth Center
Fri 02:36:58 PM 35.6697 -95.4181 205° Southwest 330 380 22,800 1,300 Climbing Fort Worth Center
Fri 02:37:58 PM 35.5808 -95.4664 204° Southwest 340 391 24,200 1,450 Climbing Fort Worth Center
Fri 02:38:58 PM 35.4919 -95.5167 205° Southwest 340 391 25,700 1,350 Climbing Fort Worth Center
Fri 02:39:58 PM 35.4094 -95.5644 205° Southwest 335 386 26,900 1,150 Climbing Fort Worth Center
Fri 02:40:58 PM 35.3267 -95.6094 204° Southwest 335 386 28,000 1,150 Climbing Fort Worth Center
Fri 02:41:58 PM 35.2458 -95.6519 203° Southwest 335 386 29,200 1,250 Climbing Fort Worth Center
Fri 02:42:58 PM 35.1650 -95.6942 203° Southwest 330 380 30,500 1,350 Climbing Fort Worth Center
Fri 02:43:58 PM 35.0886 -95.7389 206° Southwest 320 368 31,900 750 Climbing Fort Worth Center
Fri 02:44:58 PM 35.0056 -95.7836 204° Southwest 314 361 32,000 50 Climbing Fort Worth Center
Fri 02:45:58 PM 34.9144 -95.8336 204° Southwest 332 382 32,000  Level Fort Worth Center
Fri 02:46:58 PM 34.8192 -95.8808 202° Southwest 361 415 32,000  Level Fort Worth Center
Fri 02:47:58 PM 34.7239 -95.9306 203° Southwest 374 430 32,000  Level Fort Worth Center
Fri 02:48:58 PM 34.6306 -95.9825 205° Southwest 374 430 32,000  Level Fort Worth Center
Fri 02:49:58 PM 34.5331 -96.0372 205° Southwest 374 430 32,000  Level Fort Worth Center
Fri 02:50:58 PM 34.4378 -96.0889 204° Southwest 379 436 32,000  Level Fort Worth Center
Fri 02:51:58 PM 34.3400 -96.1408 204° Southwest 379 436 32,000  Level Fort Worth Center
Fri 02:52:58 PM 34.2425 -96.1950 205° Southwest 379 436 32,000  Level Fort Worth Center
Fri 02:53:58 PM 34.1469 -96.2442 203° Southwest 379 436 32,000  Level Fort Worth Center
Fri 02:54:58 PM 34.0661 -96.2878 204° Southwest 374 430 32,000  Level Fort Worth Center
Fri 02:55:58 PM 33.9706 -96.3417 205° Southwest 374 430 32,000  Level Fort Worth Center
Fri 02:56:58 PM 33.8728 -96.3878 201° Southwest 379 436 32,000  Level Fort Worth Center
Fri 02:57:58 PM 33.7753 -96.4389 204° Southwest 379 436 32,000  Level Fort Worth Center
Fri 02:58:58 PM 33.6817 -96.4925 205° Southwest 379 436 32,000  Level Fort Worth Center
Fri 02:59:58 PM 33.5839 -96.5433 203° Southwest 379 436 32,000  Level Fort Worth Center
Fri 03:00:58 PM 33.4883 -96.5939 204° Southwest 379 436 32,000  Level Fort Worth Center
Fri 03:01:58 PM 33.3906 -96.6422 202° Southwest 379 436 32,000  Level Fort Worth Center
Fri 03:02:58 PM 33.2861 -96.6656 191° South 379 436 32,000  Level Fort Worth Center
Fri 03:03:58 PM 33.1733 -96.6564 176° South 385 443 32,000  Level Fort Worth Center
Fri 03:04:58 PM 33.0606 -96.6450 175° South 397 457 32,000  Level Fort Worth Center
Fri 03:05:58 PM 32.9375 -96.6361 177° South 404 465 32,000  Level Fort Worth Center
Fri 03:06:58 PM 32.8225 -96.6247 175° South 404 465 32,000  Level Fort Worth Center
Fri 03:07:58 PM 32.7097 -96.6158 176° South 404 465 32,000  Level Fort Worth Center
Fri 03:08:58 PM 32.5969 -96.6094 177° South 404 465 32,000  Level Fort Worth Center
Fri 03:09:58 PM 32.4842 -96.5958 174° South 404 465 32,000  Level Fort Worth Center
Fri 03:10:58 PM 32.3714 -96.5894 177° South 404 465 32,000  Level Fort Worth Center
Fri 03:11:58 PM 32.2586 -96.5806 176° South 404 465 32,000  Level Fort Worth Center
Fri 03:12:58 PM 32.1458 -96.5694 175° South 404 465 32,000  Level Fort Worth Center
Fri 03:13:58 PM 32.0350 -96.5606 176° South 404 465 32,000  Level Fort Worth Center
Fri 03:16:27 PM 31.7656 -96.5350 175° South 403 464 32,000 -427 Level Houston Center
Fri 03:17:29 PM 31.6511 -96.5244 176° South 406 467 30,500 -1,452 Descending Houston Center
Fri 03:18:31 PM 31.5386 -96.5153 176° South 402 463 29,000 -1,694 Descending Houston Center
Fri 03:19:33 PM 31.4242 -96.4767 164° South 421 484 27,000 -1,935 Descending Houston Center
Fri 03:20:35 PM 31.3094 -96.4172 156° South 444 511 25,000 -1,452 Descending Houston Center
Fri 03:21:37 PM 31.1769 -96.3306 151° Southeast 460 529 24,000 -1,016 Descending Houston Center
Fri 03:22:39 PM 31.0661 -96.2592 151° Southeast 455 524 22,900 -1,548 Descending Houston Center
Fri 03:23:41 PM 30.9592 -96.1892 151° Southeast 443 510 20,800 -2,112 Descending Houston Center
Fri 03:24:44 PM 30.8569 -96.1222 151° Southeast 426 490 18,500 -2,352 Descending Houston Center
Fri 03:25:46 PM 30.7583 -96.0583 151° Southeast 405 466 15,900 -2,645 Descending Houston Center
Fri 03:26:17 PM 30.6975 -96.0192 151° Southeast 400 460 14,400 -2,226 Descending Houston Center
Fri 03:26:48 PM 30.6664 -95.9994 151° Southeast 401 461 13,600 -2,464 Descending Houston Center
Fri 03:27:13 PM 30.6089 -95.9639 152° Southeast 391 450 12,100 -2,806 Descending Houston Center
Fri 03:27:50 PM 30.5558 -95.9281 150° Southeast 382 440 10,700 -1,967 Descending Houston Center
Fri 03:28:14 PM 30.5200 -95.9061 152° Southeast 361 415 10,100 -677 Descending Houston Center
Fri 03:28:52 PM 30.4750 -95.8761 150° Southeast 340 391 10,000 -179 Descending Houston Center
Fri 03:29:21 PM 30.4358 -95.8553 155° Southeast 283 326 9,900 -581 Descending Houston Center
Fri 03:29:54 PM 30.4025 -95.8550 180° South 284 327 9,400 -984 Descending Houston Center
Fri 03:30:22 PM 30.3581 -95.8547 180° South 267 307 8,900 -968 Descending Houston Center
Fri 03:30:56 PM 30.3283 -95.8547 180° South 265 305 8,400 -871 Descending Houston Center
Fri 03:31:24 PM 30.2825 -95.8561 181° South 265 305 8,000 -381 Descending Houston Center
Fri 03:31:59 PM 30.2539 -95.8553 179° South 267 307 8,000  Level Houston Center
Fri 03:32:25 PM 30.2092 -95.8575 182° South 261 300 8,000  Level Houston Center
Fri 03:33:01 PM 30.1686 -95.8578 180° South 260 299 8,000  Level Houston Center
Fri 03:33:21 PM 30.1422 -95.8603 185° South 259 298 8,000 -968 Level Houston Center
Fri 03:34:03 PM 30.1028 -95.8325 149° Southeast 270 311 7,000 -1,672 Descending Houston Center
Fri 03:34:22 PM 30.0758 -95.8197 158° South 266 306 6,300 -1,355 Descending Houston Center
Fri 03:35:05 PM 30.0386 -95.7936 149° Southeast 260 299 5,600 -1,065 Descending Houston Center
Fri 03:35:24 PM 30.0181 -95.7831 156° South 218 251 5,200 -581 Descending Houston Center
Fri 03:36:07 PM 29.9961 -95.7494 127° Southeast 229 264 5,000 -197 Descending Houston Center
Fri 03:36:25 PM 29.9939 -95.7231 96° East 218 251 5,000  Level Houston Center
Fri 03:37:09 PM 29.9933 -95.6828 91° East 211 243 5,000  Level Houston Center
Fri 03:37:26 PM 29.9919 -95.6536 93° East 201 231 5,000 -387 Level Houston Center
Fri 03:38:11 PM 29.9933 -95.6203 87° East 202 232 4,600 -787 Descending Houston Center
Fri 03:38:27 PM 29.9931 -95.5978 91° East 175 201 4,200 -1,048 Descending Houston Center
Fri 03:39:14 PM 29.9936 -95.5572 89° East 171 197 3,500 -871 Descending Houston Center
Fri 03:39:29 PM 29.9925 -95.5450 96° East 158 182 3,300 -774 Descending Houston Center
Fri 03:40:16 PM 29.9939 -95.5083 87° East 160 184 2,700 -871 Descending Houston Center
Fri 03:40:31 PM 29.9919 -95.4919 98° East 155 178 2,400 -871 Descending Houston Center
Fri 03:41:18 PM 29.9933 -95.4578 87° East 157 181 1,800 -787 Descending Houston Center
Fri 03:41:32 PM 29.9917 -95.4414 97° East 159 183 1,600 -677 Descending Houston Center
Fri 03:42:20 PM 29.9936 -95.4092 86° East 155 178 1,100 -787 Descending Houston Center
Fri 03:42:33 PM 29.9919 -95.3978 100° East 125 144 800 -677 Descending Houston Center
Fri 03:43:22 PM 29.9944 -95.3689 84° East 142 163 400 -490 Descending Houston Center

Login

Don't have an account? Register now (free) for customized features, flight alerts, and more!